^^
Station Historical Data
Daily Summary for February 9, 2018 Units:  English    Metric   Both
« Previous Day
Next Day »
Daily Weekly Monthly Yearly Custom
  High: Low: Average:
Temperature: TemperatureF °F 62.4 °F 70.1 °F
Dew Point: DewpointF °F 53.8 °F 55 °F
Humidity: Humidity% 45% 59%
Wind Speed: WindSpeedMPHmph -999.9mph -33.7mph
Wind Gust: WindSpeedGustMPHmph - -
Wind- -
Pressure: PressureIn in 29.58 in -
Precipitation: 0.00 in    
Historical Graphs
 
 
Tabular Data for February 9, 2018
Time Temperature Dew Point Pressure Wind Wind Speed Wind Gust Humidity Rainfall Rate (Hourly) solar Conditions
TemperatureF °F DewpointF °F PressureIn in Calm     Humidity% HourlyPrecipIn in SoftwareType W/m2 Conditions
08:59 62.4 °F 55.4 °F 29.63 in North -999.9 mph -999.0 mph 78% 0.00 in meteobridge W/m2
09:05 63.3 °F 55.6 °F 29.64 in South 2.0 mph 3.0 mph 76% 0.00 in meteobridge W/m2
09:12 64.0 °F 55.2 °F 29.64 in South 4.0 mph 5.0 mph 73% 0.00 in meteobridge W/m2
09:18 64.2 °F 55.0 °F 29.65 in SSE 4.9 mph 6.0 mph 72% 0.00 in meteobridge W/m2
09:24 64.2 °F 54.7 °F 29.65 in SSE 2.0 mph 6.0 mph 71% 0.00 in meteobridge W/m2
09:30 64.8 °F 54.3 °F 29.65 in SSE 2.9 mph 7.0 mph 69% 0.00 in meteobridge W/m2
09:36 65.5 °F 55.0 °F 29.65 in Calm   2.0 mph 69% 0.00 in meteobridge W/m2
09:43 66.6 °F 56.5 °F 29.66 in North 4.9 mph 6.0 mph 70% 0.00 in meteobridge W/m2
09:49 66.2 °F 56.8 °F 29.66 in NNE 2.0 mph 6.0 mph 72% 0.00 in meteobridge W/m2
09:55 66.4 °F 56.3 °F 29.66 in NE 2.9 mph 4.0 mph 70% 0.00 in meteobridge W/m2
10:01 66.9 °F 55.9 °F 29.66 in NE 4.9 mph 6.0 mph 68% 0.00 in meteobridge W/m2
10:07 66.7 °F 55.4 °F 29.66 in NNE 4.9 mph 8.0 mph 67% 0.00 in meteobridge W/m2
10:13 66.2 °F 54.9 °F 29.66 in NNE 4.9 mph 6.0 mph 67% 0.00 in meteobridge W/m2
10:19 66.2 °F 54.5 °F 29.66 in NNE 4.9 mph 7.0 mph 66% 0.00 in meteobridge W/m2
10:25 66.6 °F 54.9 °F 29.66 in North 8.9 mph 9.0 mph 66% 0.00 in meteobridge W/m2
10:31 66.9 °F 54.9 °F 29.66 in NNE 4.9 mph 7.0 mph 65% 0.00 in meteobridge W/m2
10:37 67.6 °F 55.0 °F 29.66 in NNE 4.0 mph 6.0 mph 64% 0.00 in meteobridge W/m2
10:44 68.2 °F 55.0 °F 29.67 in NNE 4.0 mph 7.0 mph 63% 0.00 in meteobridge W/m2
10:50 68.5 °F 55.4 °F 29.67 in NE 2.9 mph 7.0 mph 63% 0.00 in meteobridge W/m2
10:56 68.9 °F 54.9 °F 29.67 in NE 4.9 mph 6.0 mph 61% 0.00 in meteobridge W/m2
11:02 68.9 °F 54.9 °F 29.67 in NE 4.9 mph 9.0 mph 61% 0.00 in meteobridge W/m2
11:08 69.3 °F 55.8 °F 29.67 in NE 4.0 mph 6.0 mph 62% 0.00 in meteobridge W/m2
11:14 70.0 °F 56.3 °F 29.67 in ENE 4.0 mph 5.0 mph 62% 0.00 in meteobridge W/m2
11:20 71.6 °F 57.0 °F 29.66 in NNE 4.0 mph 11.0 mph 60% 0.00 in meteobridge W/m2
11:26 72.0 °F 57.4 °F 29.66 in NE 4.0 mph 4.0 mph 60% 0.00 in meteobridge W/m2
11:32 71.8 °F 57.2 °F 29.66 in NE 6.0 mph 9.0 mph 60% 0.00 in meteobridge W/m2
11:38 72.1 °F 56.1 °F 29.66 in ENE 2.0 mph 9.0 mph 57% 0.00 in meteobridge W/m2
11:45 73.9 °F 55.8 °F 29.66 in North 4.0 mph 5.0 mph 53% 0.00 in meteobridge W/m2
11:51 74.3 °F 56.7 °F 29.65 in East 2.0 mph 5.0 mph 54% 0.00 in meteobridge W/m2
11:57 74.8 °F 56.5 °F 29.65 in East 2.0 mph 2.0 mph 53% 0.00 in meteobridge W/m2
12:03 74.5 °F 54.1 °F 29.65 in SE 4.0 mph 5.0 mph 49% 0.00 in meteobridge W/m2
12:09 73.8 °F 55.0 °F 29.65 in Calm   4.0 mph 52% 0.00 in meteobridge W/m2
12:15 74.1 °F 54.9 °F 29.65 in ENE 2.9 mph 6.0 mph 51% 0.00 in meteobridge W/m2
12:22 74.7 °F 55.9 °F 29.65 in ESE 0.9 mph 3.0 mph 52% 0.00 in meteobridge W/m2
12:28 74.1 °F 53.8 °F 29.64 in SE 4.0 mph 7.0 mph 49% 0.00 in meteobridge W/m2
12:34 73.9 °F 54.1 °F 29.64 in SSE 0.9 mph 3.0 mph 50% 0.00 in meteobridge W/m2
12:40 74.7 °F 55.4 °F 29.63 in SSW 4.9 mph 6.0 mph 51% 0.00 in meteobridge W/m2
12:46 75.7 °F 55.2 °F 29.63 in SSW 2.0 mph 3.0 mph 49% 0.00 in meteobridge W/m2
12:52 77.0 °F 54.7 °F 29.63 in South 2.0 mph 5.0 mph 46% 0.00 in meteobridge W/m2
12:59 77.0 °F 54.7 °F 29.62 in North 4.0 mph 11.0 mph 46% 0.00 in meteobridge W/m2
13:05 77.0 °F 55.2 °F 29.62 in NE 2.9 mph 4.0 mph 47% 0.00 in meteobridge W/m2
13:25 77.5 °F 54.5 °F 29.62 in NE 2.9 mph 6.0 mph 45% 0.00 in meteobridge W/m2
13:31 77.2 °F 54.9 °F 29.62 in ENE 2.0 mph 9.0 mph 46% 0.00 in meteobridge W/m2
13:38 77.0 °F 54.7 °F 29.62 in NE 2.0 mph 4.0 mph 46% 0.00 in meteobridge W/m2
13:44 76.6 °F 54.9 °F 29.61 in SSE 2.9 mph 5.0 mph 47% 0.00 in meteobridge W/m2
13:50 75.7 °F 54.7 °F 29.61 in ENE 2.0 mph 6.0 mph 48% 0.00 in meteobridge W/m2
13:56 75.6 °F 54.5 °F 29.61 in ENE 4.9 mph 6.0 mph 48% 0.00 in meteobridge W/m2
14:02 75.2 °F 54.7 °F 29.61 in South 2.9 mph 5.0 mph 49% 0.00 in meteobridge W/m2
14:08 75.0 °F 54.5 °F 29.60 in South 8.9 mph 11.0 mph 49% 0.00 in meteobridge W/m2
14:14 75.0 °F 55.0 °F 29.60 in SSW 4.0 mph 6.0 mph 50% 0.00 in meteobridge W/m2
14:20 75.0 °F 54.0 °F 29.60 in SSW 2.9 mph 6.0 mph 48% 0.00 in meteobridge W/m2
14:26 75.6 °F 55.6 °F 29.60 in SSW 2.0 mph 12.0 mph 50% 0.00 in meteobridge W/m2
14:33 75.9 °F 55.9 °F 29.60 in SW 2.9 mph 7.0 mph 50% 0.00 in meteobridge W/m2
14:39 76.5 °F 55.9 °F 29.60 in SSW 4.0 mph 10.0 mph 49% 0.00 in meteobridge W/m2
14:45 77.7 °F 57.6 °F 29.59 in SE 11.0 mph 11.0 mph 50% 0.00 in meteobridge W/m2
14:51 79.2 °F 57.7 °F 29.59 in SSW 4.9 mph 8.0 mph 48% 0.00 in meteobridge W/m2
14:57 79.5 °F 56.3 °F 29.59 in SSW 2.0 mph 9.0 mph 45% 0.00 in meteobridge W/m2
15:03 79.7 °F 56.5 °F 29.59 in SSW 4.9 mph 7.0 mph 45% 0.00 in meteobridge W/m2
15:09 78.6 °F 55.6 °F 29.59 in SW 8.9 mph 15.0 mph 45% 0.00 in meteobridge W/m2
15:15 76.1 °F 56.7 °F 29.58 in SE 2.9 mph 10.0 mph 51% 0.00 in meteobridge W/m2
15:24 70.5 °F 55.9 °F 29.59 in NE 14.1 mph 14.1 mph 60% 0.00 in meteobridge W/m2
15:30 68.4 °F 55.2 °F 29.59 in ENE 12.1 mph 16.0 mph 63% 0.00 in meteobridge W/m2
15:36 67.8 °F 55.6 °F 29.59 in NE 8.9 mph 12.0 mph 65% 0.00 in meteobridge W/m2
15:42 67.6 °F 55.9 °F 29.59 in NE 4.0 mph 13.0 mph 66% 0.00 in meteobridge W/m2
15:48 67.5 °F 56.1 °F 29.59 in NNE 8.9 mph 13.0 mph 67% 0.00 in meteobridge W/m2
15:54 67.5 °F 57.7 °F 29.58 in NE 8.1 mph 13.0 mph 71% 0.00 in meteobridge W/m2
16:00 66.7 °F 57.4 °F 29.59 in North 6.9 mph 16.0 mph 72% 0.00 in meteobridge W/m2
16:07 66.2 °F 57.2 °F 29.59 in ENE 6.0 mph 11.0 mph 73% 0.00 in meteobridge W/m2
16:13 66.6 °F 57.6 °F 29.59 in NE 10.1 mph 15.0 mph 73% 0.00 in meteobridge W/m2
16:19 68.0 °F 58.3 °F 29.59 in NNE 19.0 mph 19.0 mph 71% 0.00 in meteobridge W/m2
16:25 68.4 °F 57.7 °F 29.59 in NE 13.0 mph 19.0 mph 69% 0.00 in meteobridge W/m2
16:31 67.8 °F 57.2 °F 29.59 in North 14.1 mph 21.0 mph 69% 0.00 in meteobridge W/m2
16:37 66.9 °F 56.8 °F 29.60 in NNE 6.9 mph 17.0 mph 70% 0.00 in meteobridge W/m2
16:43 66.6 °F 56.5 °F 29.62 in North 8.9 mph 9.0 mph 70% 0.00 in meteobridge W/m2
16:50 66.6 °F 56.5 °F 29.62 in North 8.9 mph -999.0 mph 70% 0.00 in meteobridge W/m2
16:57 66.6 °F 56.5 °F 29.63 in North -999.9 mph -999.0 mph 70% 0.00 in meteobridge W/m2
17:03 66.6 °F 56.5 °F 29.62 in North -999.9 mph -999.0 mph 70% 0.00 in meteobridge W/m2
Regenstein, Windhoek, Namibia
Compliments of Weather Underground - 2.5 mb